createdAt,value
2023-03-17T00:02:07.474Z,100219.84
2023-03-17T00:04:35.838Z,100222.66
2023-03-17T00:07:04.092Z,100212.13
2023-03-17T00:09:32.835Z,100204.41
2023-03-17T00:12:01.037Z,100213.47
2023-03-17T00:14:30.883Z,100209.72
2023-03-17T00:16:58.963Z,100217.31
2023-03-17T00:19:30.825Z,100215.97
2023-03-17T00:21:59.152Z,100217.91
2023-03-17T00:24:28.336Z,100221.09
2023-03-17T00:26:56.535Z,100219.19
2023-03-17T00:29:25.359Z,100217.50
2023-03-17T00:31:55.210Z,100218.56
2023-03-17T00:34:24.326Z,100218.88
2023-03-17T00:36:52.432Z,100211.69
2023-03-17T00:39:20.827Z,100203.91
2023-03-17T00:41:49.053Z,100212.63
2023-03-17T00:44:17.412Z,100212.03
2023-03-17T00:46:46.356Z,100217.31
2023-03-17T00:51:46.392Z,100209.13
2023-03-17T00:54:16.426Z,100203.38
2023-03-17T00:56:45.501Z,100199.75
2023-03-17T00:59:20.698Z,100199.34
2023-03-17T01:01:49.797Z,100199.81
2023-03-17T01:04:19.933Z,100205.28
2023-03-17T01:06:49.493Z,100196.63
2023-03-17T01:09:21.445Z,100188.75
2023-03-17T01:11:50.067Z,100187.16
2023-03-17T01:14:18.440Z,100194.03
2023-03-17T01:16:48.077Z,100183.97
2023-03-17T01:19:16.785Z,100188.75
2023-03-17T01:21:47.954Z,100186.53
2023-03-17T01:24:16.088Z,100181.50
2023-03-17T01:26:44.590Z,100178.03
2023-03-17T01:29:13.816Z,100179.16
2023-03-17T01:31:42.299Z,100171.47
2023-03-17T01:34:11.493Z,100170.09
2023-03-17T01:36:41.304Z,100165.22
2023-03-17T01:39:10.944Z,100159.13
2023-03-17T01:41:40.027Z,100148.25
2023-03-17T01:44:10.834Z,100152.50
2023-03-17T01:46:39.150Z,100153.59
2023-03-17T01:49:11.435Z,100136.78
2023-03-17T01:51:44.122Z,100126.19
2023-03-17T01:54:17.698Z,100115.75
2023-03-17T01:56:46.693Z,100123.25
2023-03-17T01:59:19.246Z,100108.16
2023-03-17T02:01:49.621Z,100115.38
2023-03-17T02:04:17.943Z,100113.75
2023-03-17T02:06:57.360Z,100113.63
2023-03-17T02:09:29.150Z,100133.69
2023-03-17T02:11:57.795Z,100141.00
2023-03-17T02:14:26.434Z,100139.66
2023-03-17T02:16:54.782Z,100134.38
2023-03-17T02:19:23.086Z,100133.56
2023-03-17T02:21:54.169Z,100128.78
2023-03-17T02:24:27.441Z,100131.69
2023-03-17T02:26:59.403Z,100135.53
2023-03-17T02:29:27.685Z,100121.78
2023-03-17T02:31:55.973Z,100122.72
2023-03-17T02:34:24.022Z,100121.63
2023-03-17T02:36:53.814Z,100123.22
2023-03-17T02:39:22.240Z,100122.31
2023-03-17T02:41:50.584Z,100125.22
2023-03-17T02:44:18.873Z,100119.75
2023-03-17T02:46:47.278Z,100116.00
2023-03-17T02:49:15.867Z,100129.22
2023-03-17T02:51:45.100Z,100123.28
2023-03-17T02:54:14.741Z,100113.78
2023-03-17T02:56:43.075Z,100118.00
2023-03-17T02:59:11.178Z,100114.50
2023-03-17T03:01:39.782Z,100113.69
2023-03-17T03:04:08.623Z,100105.69
2023-03-17T03:06:37.434Z,100102.97
2023-03-17T03:09:05.650Z,100110.50
2023-03-17T03:11:35.960Z,100103.78
2023-03-17T03:14:04.078Z,100100.03
2023-03-17T03:16:32.499Z,100102.34
2023-03-17T03:19:00.764Z,100103.00
2023-03-17T03:21:29.170Z,100112.06
2023-03-17T03:23:57.508Z,100109.03
2023-03-17T03:26:25.866Z,100102.75
2023-03-17T03:28:57.314Z,100113.31
2023-03-17T03:31:26.038Z,100118.19
2023-03-17T03:33:54.148Z,100114.50
2023-03-17T03:36:23.282Z,100109.56
2023-03-17T03:38:51.629Z,100105.09
2023-03-17T03:41:19.908Z,100099.06
2023-03-17T03:43:47.943Z,100097.44
2023-03-17T03:46:17.588Z,100107.56
2023-03-17T03:48:45.678Z,100115.84
2023-03-17T03:51:13.980Z,100118.22
2023-03-17T03:53:42.033Z,100105.72
2023-03-17T03:56:10.380Z,100104.25
2023-03-17T03:58:38.534Z,100107.56
2023-03-17T04:01:07.347Z,100104.69
2023-03-17T04:03:37.436Z,100105.81
2023-03-17T04:06:06.461Z,100107.19
2023-03-17T04:08:34.627Z,100104.88
2023-03-17T04:11:02.897Z,100107.72
2023-03-17T04:13:30.955Z,100116.00
2023-03-17T04:15:59.372Z,100108.00
2023-03-17T04:18:27.498Z,100097.28
2023-03-17T04:20:57.144Z,100106.53
2023-03-17T04:23:25.322Z,100107.81
2023-03-17T04:25:53.939Z,100103.47
2023-03-17T04:28:22.433Z,100099.13
2023-03-17T04:30:50.978Z,100099.59
2023-03-17T04:33:20.201Z,100100.97
2023-03-17T04:35:48.558Z,100094.69
2023-03-17T04:38:18.107Z,100097.31
2023-03-17T04:40:46.847Z,100097.09
2023-03-17T04:43:14.865Z,100093.38
2023-03-17T04:45:43.262Z,100094.56
2023-03-17T04:48:11.348Z,100103.41
2023-03-17T04:50:39.773Z,100098.38
2023-03-17T04:53:07.907Z,100097.78
2023-03-17T04:55:38.739Z,100090.00
2023-03-17T04:58:06.780Z,100093.00
2023-03-17T05:00:38.671Z,100089.09
2023-03-17T05:03:20.049Z,100094.13
2023-03-17T05:05:54.445Z,100101.00
2023-03-17T05:08:22.436Z,100113.00
2023-03-17T05:10:52.563Z,100118.38
2023-03-17T05:13:20.662Z,100118.50
2023-03-17T05:15:49.189Z,100110.13
2023-03-17T05:18:17.404Z,100129.91
2023-03-17T05:20:46.174Z,100128.38
2023-03-17T05:23:14.493Z,100132.47
2023-03-17T05:25:42.908Z,100145.78
2023-03-17T05:28:12.455Z,100150.53
2023-03-17T05:30:40.803Z,100152.59
2023-03-17T05:33:08.933Z,100156.25
2023-03-17T05:35:37.374Z,100139.63
2023-03-17T05:38:05.427Z,100143.09
2023-03-17T05:40:34.018Z,100141.06
2023-03-17T05:43:02.387Z,100158.28
2023-03-17T05:45:33.290Z,100156.31
2023-03-17T05:48:01.374Z,100154.34
2023-03-17T05:50:29.875Z,100157.53
2023-03-17T05:52:58.097Z,100160.97
2023-03-17T05:55:26.682Z,100159.06
2023-03-17T05:57:54.747Z,100156.75
2023-03-17T06:00:23.577Z,100159.16
2023-03-17T06:02:53.003Z,100163.25
2023-03-17T06:05:21.426Z,100152.94
2023-03-17T06:07:54.926Z,100159.44
2023-03-17T06:10:24.998Z,100163.06
2023-03-17T06:12:53.056Z,100158.22
2023-03-17T06:15:21.832Z,100163.84
2023-03-17T06:17:50.172Z,100161.03
2023-03-17T06:20:20.202Z,100153.91
2023-03-17T06:23:03.372Z,100155.16
2023-03-17T06:25:33.411Z,100162.81
2023-03-17T06:28:03.699Z,100163.53
2023-03-17T06:30:33.055Z,100166.16
2023-03-17T06:33:01.546Z,100156.81
2023-03-17T06:35:32.113Z,100154.19
2023-03-17T06:38:01.064Z,100157.53
2023-03-17T06:40:29.800Z,100151.94
2023-03-17T06:42:58.049Z,100153.53
2023-03-17T06:45:26.694Z,100164.69
2023-03-17T06:47:54.711Z,100159.19
2023-03-17T06:50:23.179Z,100161.44
2023-03-17T06:52:52.640Z,100162.47
2023-03-17T06:55:21.462Z,100157.09
2023-03-17T06:57:51.168Z,100161.00
2023-03-17T07:00:20.847Z,100163.50
2023-03-17T07:02:49.385Z,100167.41
2023-03-17T07:05:18.048Z,100165.81
2023-03-17T07:07:46.549Z,100167.75
2023-03-17T07:10:17.159Z,100163.97
2023-03-17T07:12:46.019Z,100154.69
2023-03-17T07:15:14.396Z,100160.06
2023-03-17T07:17:42.892Z,100164.28
2023-03-17T07:20:12.114Z,100160.88
2023-03-17T07:22:40.364Z,100159.28
2023-03-17T07:25:09.561Z,100154.66
2023-03-17T07:27:39.123Z,100155.81
2023-03-17T07:30:08.798Z,100154.84
2023-03-17T07:32:37.477Z,100152.22
2023-03-17T07:35:07.252Z,100156.84
2023-03-17T07:37:35.401Z,100151.16
2023-03-17T07:40:03.700Z,100148.94
2023-03-17T07:42:32.166Z,100156.28
2023-03-17T07:45:03.118Z,100152.63
2023-03-17T07:47:31.209Z,100157.31
2023-03-17T07:49:59.643Z,100158.13
2023-03-17T07:52:27.709Z,100166.28
2023-03-17T07:54:56.079Z,100162.25
2023-03-17T07:57:24.328Z,100170.59
2023-03-17T07:59:52.683Z,100179.94
2023-03-17T08:02:22.250Z,100172.84
2023-03-17T08:04:51.009Z,100167.81
2023-03-17T08:07:19.434Z,100178.72
2023-03-17T08:09:47.885Z,100167.00
2023-03-17T08:12:15.985Z,100171.72
2023-03-17T08:14:44.374Z,100181.25
2023-03-17T08:17:13.480Z,100172.25
2023-03-17T08:19:43.587Z,100175.97
2023-03-17T08:22:12.326Z,100167.19
2023-03-17T08:24:42.887Z,100168.16
2023-03-17T08:27:11.166Z,100159.50
2023-03-17T08:29:40.292Z,100149.16
2023-03-17T08:32:09.475Z,100159.19
2023-03-17T08:34:38.219Z,100142.69
2023-03-17T08:37:11.297Z,100152.44
2023-03-17T08:39:40.250Z,100150.03
2023-03-17T08:42:08.363Z,100141.03
2023-03-17T08:44:37.173Z,100146.47
2023-03-17T08:47:05.708Z,100146.09
2023-03-17T08:49:35.978Z,100145.69
2023-03-17T08:52:04.155Z,100153.25
2023-03-17T08:54:35.738Z,100152.41
2023-03-17T08:57:04.170Z,100142.47
2023-03-17T08:59:32.672Z,100151.53
2023-03-17T09:02:00.887Z,100144.41
2023-03-17T09:04:29.317Z,100145.66
2023-03-17T09:07:04.784Z,100139.78
2023-03-17T09:09:35.505Z,100135.06
2023-03-17T09:12:05.578Z,100135.44
2023-03-17T09:14:42.821Z,100125.75
2023-03-17T09:17:11.590Z,100117.88
2023-03-17T09:19:40.393Z,100123.63
2023-03-17T09:22:08.827Z,100132.41
2023-03-17T09:24:38.459Z,100109.13
2023-03-17T09:27:06.962Z,100113.97
2023-03-17T09:29:35.656Z,100107.13
2023-03-17T09:32:03.730Z,100106.66
2023-03-17T09:34:32.671Z,100103.50
2023-03-17T09:37:00.974Z,100095.06
2023-03-17T09:39:29.365Z,100091.38
2023-03-17T09:42:14.550Z,100082.34
2023-03-17T09:45:02.254Z,100081.31
2023-03-17T09:47:49.965Z,100079.75
2023-03-17T09:50:20.861Z,100081.88
2023-03-17T09:52:51.355Z,100094.09
2023-03-17T09:55:25.085Z,100088.25
2023-03-17T09:57:55.968Z,100083.19
2023-03-17T10:00:29.050Z,100078.16
2023-03-17T10:02:58.361Z,100074.13
2023-03-17T10:05:28.878Z,100072.50
2023-03-17T10:08:02.718Z,100072.22
2023-03-17T10:10:36.690Z,100070.09
2023-03-17T10:13:13.402Z,100075.34
2023-03-17T10:15:47.518Z,100070.44
2023-03-17T10:18:17.435Z,100056.13
2023-03-17T10:20:51.636Z,100067.75
2023-03-17T10:23:22.132Z,100068.09
2023-03-17T10:25:50.541Z,100064.81
2023-03-17T10:28:27.140Z,100062.25
2023-03-17T10:31:16.630Z,100058.75
2023-03-17T10:33:48.109Z,100047.34
2023-03-17T10:36:17.982Z,100049.88
2023-03-17T10:38:52.007Z,100042.84
2023-03-17T10:41:20.555Z,100045.84
2023-03-17T10:43:51.733Z,100044.53
2023-03-17T10:46:23.257Z,100044.91
2023-03-17T10:48:53.937Z,100045.34
2023-03-17T10:51:26.912Z,100039.75
2023-03-17T10:53:54.934Z,100046.50
2023-03-17T10:56:25.850Z,100039.50
2023-03-17T10:58:56.918Z,100034.72
2023-03-17T11:01:30.231Z,100040.47
2023-03-17T11:04:00.405Z,100030.03
2023-03-17T11:06:36.314Z,100032.34
2023-03-17T11:09:10.983Z,100028.25
2023-03-17T11:11:44.623Z,100032.88
2023-03-17T11:14:16.196Z,100031.25
2023-03-17T11:16:53.070Z,100029.97
2023-03-17T11:19:23.583Z,100022.53
2023-03-17T11:21:57.107Z,100029.75
2023-03-17T11:24:30.468Z,100023.44
2023-03-17T11:27:01.137Z,100017.34
2023-03-17T11:29:49.627Z,100015.63
2023-03-17T11:32:28.169Z,100019.38
2023-03-17T11:35:04.752Z,100016.59
2023-03-17T11:37:46.931Z,100010.69
2023-03-17T11:40:21.135Z,100008.31
2023-03-17T11:42:55.927Z,100013.72
2023-03-17T11:45:28.464Z,100005.63
2023-03-17T11:48:03.750Z,100000.72
2023-03-17T11:50:36.223Z,99998.03
2023-03-17T11:53:22.603Z,99995.44
2023-03-17T11:55:55.734Z,99988.91
2023-03-17T11:58:29.080Z,99989.72
2023-03-17T12:01:01.357Z,99985.91
2023-03-17T12:03:33.282Z,99988.78
2023-03-17T12:06:05.667Z,99988.75
2023-03-17T12:08:38.986Z,99984.41
2023-03-17T12:11:13.942Z,99981.84
2023-03-17T12:14:00.484Z,99983.84
2023-03-17T12:16:42.708Z,99980.56
2023-03-17T12:19:24.413Z,99969.16
2023-03-17T12:22:08.076Z,99969.91
2023-03-17T12:24:53.567Z,99929.03
2023-03-17T12:27:30.857Z,99978.66
2023-03-17T12:30:08.912Z,99964.78
2023-03-17T12:32:42.757Z,99966.19
2023-03-17T12:35:29.261Z,99957.69
2023-03-17T12:37:59.934Z,99962.06
2023-03-17T12:40:33.565Z,99963.06
2023-03-17T12:43:30.352Z,99961.69
2023-03-17T12:46:36.590Z,99951.72
2023-03-17T12:49:37.091Z,99948.06
2023-03-17T12:52:14.570Z,99943.88
2023-03-17T12:54:47.770Z,99943.50
2023-03-17T12:57:19.462Z,99938.63
2023-03-17T12:59:49.751Z,99935.75
2023-03-17T13:02:24.882Z,99934.94
2023-03-17T13:04:58.004Z,99925.50
2023-03-17T13:07:27.967Z,99933.13
2023-03-17T13:10:19.875Z,99928.53
2023-03-17T13:13:08.734Z,99928.38
2023-03-17T13:16:00.437Z,99922.06
2023-03-17T13:18:53.331Z,99923.44
2023-03-17T13:21:26.377Z,99909.75
2023-03-17T13:23:57.956Z,99906.63
2023-03-17T13:26:54.925Z,99903.97
2023-03-17T13:29:44.235Z,99897.03
2023-03-17T13:32:39.902Z,99897.50
2023-03-17T13:35:16.752Z,99897.41
2023-03-17T13:38:23.191Z,99901.88
2023-03-17T13:41:01.309Z,99886.75
2023-03-17T13:43:43.356Z,99882.28
2023-03-17T13:46:28.976Z,99871.91
2023-03-17T13:48:57.689Z,99882.19
2023-03-17T13:51:27.232Z,99887.75
2023-03-17T13:53:59.028Z,99890.78
2023-03-17T13:56:30.648Z,99890.88
2023-03-17T13:59:11.684Z,99876.91
2023-03-17T14:01:43.003Z,99882.69
2023-03-17T14:04:21.614Z,99862.66
2023-03-17T14:06:53.047Z,99873.13
2023-03-17T14:09:36.274Z,99873.13
2023-03-17T14:12:12.167Z,99866.22
2023-03-17T14:14:45.757Z,99861.66
2023-03-17T14:17:16.689Z,99864.84
2023-03-17T14:20:04.540Z,99859.84
2023-03-17T14:23:01.511Z,99861.75
2023-03-17T14:25:35.590Z,99856.91
2023-03-17T14:28:09.348Z,99855.75
2023-03-17T14:31:05.449Z,99850.75
2023-03-17T14:33:38.892Z,99865.22
2023-03-17T14:36:15.489Z,99867.19
2023-03-17T14:38:48.513Z,99857.31
2023-03-17T14:41:22.546Z,99865.63
2023-03-17T14:43:52.247Z,99862.88
2023-03-17T14:46:23.465Z,99863.63
2023-03-17T14:48:57.419Z,99860.88
2023-03-17T14:51:28.711Z,99855.91
2023-03-17T14:54:00.302Z,99851.94
2023-03-17T14:56:32.834Z,99846.59
2023-03-17T14:59:06.796Z,99842.06
2023-03-17T15:01:37.551Z,99843.03
2023-03-17T15:04:12.515Z,99843.50
2023-03-17T15:06:49.514Z,99836.09
2023-03-17T15:09:25.771Z,99830.53
2023-03-17T15:11:57.147Z,99829.75
2023-03-17T15:14:30.962Z,99823.81
2023-03-17T15:16:59.368Z,99825.41
2023-03-17T15:19:30.299Z,99829.16
2023-03-17T15:22:00.269Z,99821.25
2023-03-17T15:24:44.021Z,99824.41
2023-03-17T15:27:17.682Z,99816.28
2023-03-17T15:29:47.443Z,99822.44
2023-03-17T15:32:17.246Z,99815.50
2023-03-17T15:34:45.795Z,99818.75
2023-03-17T15:37:18.644Z,99820.25
2023-03-17T15:39:47.601Z,99824.00
2023-03-17T15:42:19.510Z,99813.41
2023-03-17T15:44:47.984Z,99809.66
2023-03-17T15:47:17.600Z,99813.91
2023-03-17T15:49:46.820Z,99809.16
2023-03-17T15:52:17.083Z,99806.00
2023-03-17T15:54:46.153Z,99800.16
2023-03-17T15:57:14.309Z,99807.56
2023-03-17T15:59:44.162Z,99801.84
2023-03-17T16:02:27.424Z,99812.91
2023-03-17T16:04:56.226Z,99811.75
2023-03-17T16:07:24.896Z,99814.34
2023-03-17T16:09:53.255Z,99823.03
2023-03-17T16:12:21.303Z,99818.06
2023-03-17T16:14:51.541Z,99821.44
2023-03-17T16:17:25.246Z,99824.03
2023-03-17T16:19:55.838Z,99820.25
2023-03-17T16:22:36.691Z,99817.28
2023-03-17T16:25:05.887Z,99827.38
2023-03-17T16:27:34.187Z,99820.63
2023-03-17T16:30:04.304Z,99827.63
2023-03-17T16:32:32.341Z,99829.31
2023-03-17T16:35:00.584Z,99831.63
2023-03-17T16:37:28.685Z,99830.00
2023-03-17T16:39:58.003Z,99828.47
2023-03-17T16:42:28.523Z,99830.47
2023-03-17T16:44:57.639Z,99819.00
2023-03-17T16:47:27.255Z,99830.78
2023-03-17T16:49:55.690Z,99831.34
2023-03-17T16:52:23.821Z,99829.25
2023-03-17T16:54:52.049Z,99830.06
2023-03-17T16:57:20.164Z,99837.00
2023-03-17T16:59:48.560Z,99844.94
2023-03-17T17:02:17.783Z,99850.00
2023-03-17T17:04:47.587Z,99852.59
2023-03-17T17:07:15.876Z,99848.41
2023-03-17T17:09:44.625Z,99854.34
2023-03-17T17:12:12.681Z,99849.34
2023-03-17T17:14:41.441Z,99852.09
2023-03-17T17:17:10.686Z,99856.03
2023-03-17T17:19:38.996Z,99862.97
2023-03-17T17:22:08.637Z,99863.88
2023-03-17T17:24:37.096Z,99866.84
2023-03-17T17:27:05.576Z,99865.19
2023-03-17T17:29:33.948Z,99869.56
2023-03-17T17:32:02.156Z,99869.16
2023-03-17T17:34:30.451Z,99869.28
2023-03-17T17:36:58.673Z,99867.53
2023-03-17T17:39:28.302Z,99874.50
2023-03-17T17:41:56.339Z,99869.97
2023-03-17T17:44:24.660Z,99868.94
2023-03-17T17:46:52.841Z,99868.44
2023-03-17T17:49:21.291Z,99875.34
2023-03-17T17:51:49.403Z,99871.44
2023-03-17T17:54:17.725Z,99875.97
2023-03-17T17:56:48.310Z,99884.00
2023-03-17T17:59:16.724Z,99885.34
2023-03-17T18:01:44.868Z,99892.28
2023-03-17T18:04:13.640Z,99892.56
2023-03-17T18:06:41.782Z,99891.56
2023-03-17T18:09:10.203Z,99895.31
2023-03-17T18:11:40.190Z,99891.00
2023-03-17T18:14:10.348Z,99905.94
2023-03-17T18:16:38.983Z,99902.66
2023-03-17T18:19:09.594Z,99909.38
2023-03-17T18:21:37.710Z,99902.28
2023-03-17T18:24:06.739Z,99900.97
2023-03-17T18:26:35.052Z,99901.53
2023-03-17T18:29:03.602Z,99904.94
2023-03-17T18:31:35.971Z,99903.63
2023-03-17T18:34:07.168Z,99904.75
2023-03-17T18:36:35.305Z,99900.78
2023-03-17T18:39:04.048Z,99901.56
2023-03-17T18:41:33.034Z,99900.44
2023-03-17T18:44:02.333Z,99904.75
2023-03-17T18:46:30.418Z,99907.38
2023-03-17T18:49:00.380Z,99902.03
2023-03-17T18:51:28.410Z,99907.88
2023-03-17T18:53:56.824Z,99903.09
2023-03-17T18:56:28.936Z,99909.50
2023-03-17T18:58:57.798Z,99914.78
2023-03-17T19:01:27.126Z,99917.00
2023-03-17T19:03:55.536Z,99906.91
2023-03-17T19:06:25.234Z,99903.25
2023-03-17T19:08:54.173Z,99903.31
2023-03-17T19:11:22.337Z,99906.56
2023-03-17T19:13:52.437Z,99903.94
2023-03-17T19:16:20.663Z,99900.75
2023-03-17T19:18:49.053Z,99893.91
2023-03-17T19:21:17.217Z,99906.63
2023-03-17T19:23:49.578Z,99917.28
2023-03-17T19:26:17.975Z,99917.28
2023-03-17T19:28:46.986Z,99926.06
2023-03-17T19:31:15.176Z,99916.78
2023-03-17T19:33:43.556Z,99922.09
2023-03-17T19:36:13.993Z,99923.72
2023-03-17T19:38:47.085Z,99925.84
2023-03-17T19:41:15.587Z,99929.59
2023-03-17T19:43:44.054Z,99927.41
2023-03-17T19:46:12.874Z,99932.75
2023-03-17T19:48:41.884Z,99937.03
2023-03-17T19:51:10.128Z,99941.31
2023-03-17T19:53:38.861Z,99931.78
2023-03-17T19:56:08.717Z,99938.16
2023-03-17T19:58:37.430Z,99936.56
2023-03-17T20:01:06.864Z,99934.69
2023-03-17T20:03:38.926Z,99952.03
2023-03-17T20:06:07.073Z,99930.22
2023-03-17T20:08:36.654Z,99946.94
2023-03-17T20:11:05.941Z,99943.22
2023-03-17T20:13:37.524Z,99935.25
2023-03-17T20:16:06.898Z,99941.84
2023-03-17T20:18:35.280Z,99944.00
2023-03-17T20:21:05.754Z,99945.06
2023-03-17T20:23:35.439Z,99942.97
2023-03-17T20:26:03.594Z,99941.38
2023-03-17T20:28:32.478Z,99946.16
2023-03-17T20:31:04.698Z,99950.97
2023-03-17T20:33:34.265Z,99943.53
2023-03-17T20:36:03.129Z,99946.72
2023-03-17T20:38:33.241Z,99935.53
2023-03-17T20:41:09.332Z,99942.44
2023-03-17T20:43:38.451Z,99936.88
2023-03-17T20:46:09.269Z,99941.41
2023-03-17T20:48:38.089Z,99949.34
2023-03-17T20:51:07.006Z,99938.75
2023-03-17T20:53:36.130Z,99948.81
2023-03-17T20:56:04.715Z,99952.50
2023-03-17T20:58:33.710Z,99951.44
2023-03-17T21:01:01.914Z,99946.91
2023-03-17T21:03:32.267Z,99951.16
2023-03-17T21:06:01.305Z,99950.13
2023-03-17T21:08:29.446Z,99951.72
2023-03-17T21:10:57.849Z,99946.13
2023-03-17T21:13:26.231Z,99951.94
2023-03-17T21:15:55.477Z,99955.19
2023-03-17T21:18:25.753Z,99958.38
2023-03-17T21:20:55.430Z,99966.91
2023-03-17T21:23:23.894Z,99964.75
2023-03-17T21:25:57.137Z,99962.13
2023-03-17T21:28:25.338Z,99965.03
2023-03-17T21:30:53.661Z,99967.44
2023-03-17T21:33:22.024Z,99963.44
2023-03-17T21:35:58.205Z,99964.00
2023-03-17T21:38:28.043Z,99960.81
2023-03-17T21:40:56.793Z,99960.59
2023-03-17T21:43:25.589Z,99951.56
2023-03-17T21:45:54.106Z,99964.84
2023-03-17T21:48:22.170Z,99965.91
2023-03-17T21:50:50.561Z,99963.00
2023-03-17T21:53:20.150Z,99964.56
2023-03-17T21:55:49.667Z,99961.38
2023-03-17T21:58:17.805Z,99960.63
2023-03-17T22:00:47.163Z,99964.31
2023-03-17T22:03:15.866Z,99955.81
2023-03-17T22:05:44.302Z,99963.75
2023-03-17T22:08:12.412Z,99970.97
2023-03-17T22:10:42.238Z,99973.38
2023-03-17T22:13:10.356Z,99980.28
2023-03-17T22:15:38.809Z,99985.09
2023-03-17T22:18:07.003Z,99983.00
2023-03-17T22:20:35.774Z,99984.03
2023-03-17T22:23:03.979Z,99983.78
2023-03-17T22:25:32.381Z,99976.06
2023-03-17T22:28:01.760Z,99979.53
2023-03-17T22:30:30.665Z,99966.78
2023-03-17T22:32:59.075Z,99982.44
2023-03-17T22:35:27.537Z,99978.97
2023-03-17T22:37:56.419Z,99991.47
2023-03-17T22:40:24.783Z,99989.91
2023-03-17T22:42:52.908Z,99999.44
2023-03-17T22:45:22.906Z,99996.78
2023-03-17T22:47:51.584Z,99997.34
2023-03-17T22:50:20.405Z,100009.03
2023-03-17T22:52:48.575Z,100004.00
2023-03-17T22:55:17.090Z,100006.94
2023-03-17T22:57:45.459Z,100002.66
2023-03-17T23:00:16.932Z,100001.09
2023-03-17T23:02:47.244Z,100005.06
2023-03-17T23:05:15.924Z,100002.94
2023-03-17T23:07:51.893Z,100011.72
2023-03-17T23:10:22.899Z,100005.38
2023-03-17T23:12:51.739Z,100006.41
2023-03-17T23:15:20.801Z,100008.03
2023-03-17T23:17:50.265Z,100009.06
2023-03-17T23:20:18.932Z,100014.94
2023-03-17T23:22:47.087Z,100015.47
2023-03-17T23:25:15.471Z,100031.94
2023-03-17T23:27:43.667Z,100026.91
2023-03-17T23:30:13.387Z,100039.91
2023-03-17T23:32:41.733Z,100049.97
2023-03-17T23:35:12.629Z,100049.72
2023-03-17T23:37:41.389Z,100055.56
2023-03-17T23:40:11.202Z,100046.56
2023-03-17T23:42:39.259Z,100048.41
2023-03-17T23:45:09.157Z,100052.38
2023-03-17T23:47:38.168Z,100054.22
2023-03-17T23:50:07.608Z,100060.63
2023-03-17T23:52:37.281Z,100065.41
2023-03-17T23:55:06.903Z,100055.31
2023-03-17T23:57:37.040Z,100063.28
